createdAt,value
2019-02-15T00:00:56.692Z,21.00
2019-02-15T00:03:28.460Z,16.82
2019-02-15T00:06:02.729Z,18.27
2019-02-15T00:08:36.621Z,21.68
2019-02-15T00:11:05.523Z,23.52
2019-02-15T00:13:36.113Z,20.70
2019-02-15T00:16:08.600Z,19.85
2019-02-15T00:19:14.540Z,18.03
2019-02-15T00:21:51.343Z,21.90
2019-02-15T00:24:26.137Z,19.52
2019-02-15T00:26:59.451Z,15.18
2019-02-15T00:29:28.344Z,17.25
2019-02-15T00:32:07.960Z,15.55
2019-02-15T00:34:38.431Z,18.52
2019-02-15T00:37:09.116Z,20.90
2019-02-15T00:39:42.462Z,16.25
2019-02-15T00:42:14.826Z,18.87
2019-02-15T00:44:43.725Z,18.87
2019-02-15T00:47:31.903Z,18.27
2019-02-15T00:50:26.335Z,20.15
2019-02-15T00:53:09.631Z,20.57
2019-02-15T00:56:15.521Z,17.02
2019-02-15T00:58:58.372Z,20.15
2019-02-15T01:01:45.707Z,20.00
2019-02-15T01:04:21.035Z,18.75
2019-02-15T01:07:10.749Z,18.48
2019-02-15T01:10:01.635Z,19.62
2019-02-15T01:12:36.027Z,22.55
2019-02-15T01:15:10.695Z,21.87
2019-02-15T01:17:39.651Z,19.82
2019-02-15T01:20:08.620Z,18.85
2019-02-15T01:22:40.590Z,27.20
2019-02-15T01:25:13.931Z,17.37
2019-02-15T01:30:56.243Z,17.17
2019-02-15T01:34:04.439Z,17.60
2019-02-15T01:36:52.206Z,25.17
2019-02-15T01:39:37.977Z,23.32
2019-02-15T01:42:28.519Z,20.43
2019-02-15T01:45:12.122Z,21.97
2019-02-15T01:50:17.265Z,23.12
2019-02-15T01:52:49.273Z,20.40
2019-02-15T01:55:20.168Z,20.55
2019-02-15T01:57:57.089Z,22.60
2019-02-15T02:00:29.330Z,22.17
2019-02-15T02:03:00.008Z,19.17
2019-02-15T02:05:32.026Z,19.82
2019-02-15T02:08:02.438Z,19.10
2019-02-15T02:10:33.048Z,22.07
2019-02-15T02:13:03.199Z,19.77
2019-02-15T02:15:34.498Z,17.12
2019-02-15T02:18:03.817Z,16.27
2019-02-15T02:20:38.331Z,16.17
2019-02-15T02:23:10.364Z,16.97
2019-02-15T02:25:41.516Z,19.77
2019-02-15T02:28:11.101Z,20.08
2019-02-15T02:30:44.577Z,18.65
2019-02-15T02:33:13.355Z,20.35
2019-02-15T02:35:44.349Z,19.30
2019-02-15T02:38:13.313Z,17.65
2019-02-15T02:41:03.117Z,17.23
2019-02-15T02:43:33.577Z,17.60
2019-02-15T02:46:05.658Z,19.05
2019-02-15T02:48:36.975Z,19.95
2019-02-15T02:51:06.107Z,22.62
2019-02-15T02:53:35.035Z,23.95
2019-02-15T02:56:08.819Z,19.02
2019-02-15T02:58:40.580Z,22.65
2019-02-15T03:01:11.617Z,19.40
2019-02-15T03:03:44.568Z,18.90
2019-02-15T03:06:16.562Z,17.25
2019-02-15T03:08:50.187Z,21.35
2019-02-15T03:11:22.318Z,18.90
2019-02-15T03:13:54.391Z,21.77
2019-02-15T03:16:26.450Z,20.90
2019-02-15T03:18:55.349Z,16.80
2019-02-15T03:21:25.803Z,18.98
2019-02-15T03:23:56.518Z,19.73
2019-02-15T03:26:30.651Z,18.17
2019-02-15T03:28:59.893Z,26.07
2019-02-15T03:31:29.815Z,19.57
2019-02-15T03:34:03.371Z,19.65
2019-02-15T03:36:48.313Z,18.05
2019-02-15T03:39:32.626Z,18.90
2019-02-15T03:42:06.874Z,22.27
2019-02-15T03:44:43.838Z,21.73
2019-02-15T03:47:21.458Z,21.73
2019-02-15T03:49:58.620Z,23.27
2019-02-15T03:52:29.720Z,21.12
2019-02-15T03:55:00.398Z,27.07
2019-02-15T03:57:30.697Z,24.80
2019-02-15T04:00:02.963Z,18.90
2019-02-15T04:02:38.203Z,19.57
2019-02-15T04:05:11.885Z,19.20
2019-02-15T04:07:42.415Z,25.00
2019-02-15T04:10:14.533Z,20.55
2019-02-15T04:12:44.857Z,26.52
2019-02-15T04:15:13.937Z,23.60
2019-02-15T04:17:48.289Z,21.12
2019-02-15T04:20:20.395Z,22.00
2019-02-15T04:22:51.044Z,21.40
2019-02-15T04:25:20.007Z,24.00
2019-02-15T04:27:59.435Z,18.75
2019-02-15T04:30:39.186Z,19.77
2019-02-15T04:33:22.969Z,24.47
2019-02-15T04:35:58.295Z,22.62
2019-02-15T04:38:54.923Z,20.88
2019-02-15T04:41:33.563Z,23.07
2019-02-15T04:44:17.731Z,21.85
2019-02-15T04:46:58.335Z,27.70
2019-02-15T04:49:31.837Z,24.07
2019-02-15T04:52:02.540Z,20.60
2019-02-15T04:54:31.111Z,21.70
2019-02-15T04:57:01.908Z,23.52
2019-02-15T04:59:33.832Z,23.32
2019-02-15T05:02:03.891Z,24.32
2019-02-15T05:04:39.189Z,24.63
2019-02-15T05:07:10.540Z,23.07
2019-02-15T05:09:41.963Z,24.12
2019-02-15T05:12:17.310Z,19.70
2019-02-15T05:14:53.150Z,19.20
2019-02-15T05:17:22.023Z,22.13
2019-02-15T05:19:52.927Z,22.32
2019-02-15T05:22:25.210Z,21.85
2019-02-15T05:24:55.854Z,30.55
2019-02-15T05:27:26.377Z,23.57
2019-02-15T05:29:59.889Z,22.52
2019-02-15T05:32:32.270Z,22.48
2019-02-15T05:35:03.240Z,19.05
2019-02-15T05:37:32.603Z,22.93
2019-02-15T05:40:05.480Z,26.62
2019-02-15T05:42:37.492Z,21.50
2019-02-15T05:45:07.897Z,20.52
2019-02-15T05:47:38.379Z,26.10
2019-02-15T05:50:11.730Z,25.97
2019-02-15T05:55:16.504Z,20.55
2019-02-15T05:57:47.356Z,25.75
2019-02-15T06:00:19.644Z,22.98
2019-02-15T06:02:52.258Z,22.73
2019-02-15T06:05:23.298Z,20.05
2019-02-15T06:07:54.170Z,19.87
2019-02-15T06:10:24.530Z,22.45
2019-02-15T06:12:56.906Z,22.48
2019-02-15T06:15:28.238Z,21.33
2019-02-15T06:17:58.941Z,22.10
2019-02-15T06:20:32.789Z,19.85
2019-02-15T06:23:01.690Z,21.12
2019-02-15T06:25:32.461Z,23.67
2019-02-15T06:28:06.115Z,23.77
2019-02-15T06:30:39.314Z,19.45
2019-02-15T06:33:09.745Z,21.37
2019-02-15T06:35:45.878Z,20.37
2019-02-15T06:38:17.695Z,20.55
2019-02-15T06:40:48.562Z,20.25
2019-02-15T06:43:20.948Z,24.65
2019-02-15T06:45:52.573Z,23.77
2019-02-15T06:48:22.881Z,21.05
2019-02-15T06:50:54.851Z,21.33
2019-02-15T06:53:30.021Z,22.65
2019-02-15T06:55:58.610Z,19.48
2019-02-15T06:58:27.619Z,22.32
2019-02-15T07:01:23.279Z,24.47
2019-02-15T07:04:07.308Z,24.55
2019-02-15T07:06:40.199Z,23.30
2019-02-15T07:09:15.267Z,23.80
2019-02-15T07:11:46.220Z,24.43
2019-02-15T07:14:15.478Z,20.88
2019-02-15T07:16:49.927Z,24.05
2019-02-15T07:19:25.727Z,24.07
2019-02-15T07:21:58.751Z,22.37
2019-02-15T07:24:34.229Z,19.17
2019-02-15T07:27:07.471Z,22.27
2019-02-15T07:29:41.687Z,21.73
2019-02-15T07:32:15.446Z,21.17
2019-02-15T07:34:47.441Z,19.37
2019-02-15T07:37:22.790Z,15.70
2019-02-15T07:39:52.868Z,15.30
2019-02-15T07:42:21.704Z,17.60
2019-02-15T07:44:56.725Z,22.17
2019-02-15T07:47:26.964Z,26.97
2019-02-15T07:50:02.194Z,38.92
2019-02-15T07:52:32.436Z,40.23
2019-02-15T07:55:01.526Z,32.42
2019-02-15T07:57:35.424Z,30.62
2019-02-15T08:00:04.926Z,25.75
2019-02-15T08:02:33.832Z,25.08
2019-02-15T08:05:07.133Z,21.27
2019-02-15T08:07:41.569Z,18.23
2019-02-15T08:10:13.604Z,52.70
2019-02-15T08:12:42.813Z,20.70
2019-02-15T08:15:11.577Z,19.95
2019-02-15T08:17:42.049Z,17.82
2019-02-15T08:20:15.096Z,21.50
2019-02-15T08:22:48.647Z,21.82
2019-02-15T08:27:50.915Z,18.10
2019-02-15T08:30:22.927Z,20.17
2019-02-15T08:32:51.984Z,17.07
2019-02-15T08:35:24.320Z,25.82
2019-02-15T08:37:56.866Z,23.70
2019-02-15T08:40:28.664Z,21.93
2019-02-15T08:42:57.959Z,22.70
2019-02-15T08:45:27.040Z,20.72
2019-02-15T08:47:59.836Z,21.33
2019-02-15T08:50:30.087Z,39.75
2019-02-15T08:53:05.338Z,22.45
2019-02-15T08:55:35.272Z,19.95
2019-02-15T08:58:04.251Z,25.70
2019-02-15T09:00:37.810Z,27.73
2019-02-15T09:05:46.231Z,20.85
2019-02-15T09:08:14.829Z,21.85
2019-02-15T09:10:43.572Z,25.30
2019-02-15T09:13:12.454Z,22.60
2019-02-15T09:15:44.991Z,21.87
2019-02-15T09:18:18.099Z,18.20
2019-02-15T09:20:50.144Z,21.75
2019-02-15T09:23:20.813Z,22.32
2019-02-15T09:25:52.786Z,28.95
2019-02-15T09:28:29.277Z,23.73
2019-02-15T09:30:59.144Z,31.52
2019-02-15T09:33:29.905Z,28.98
2019-02-15T09:35:58.466Z,20.85
2019-02-15T09:38:30.735Z,18.80
2019-02-15T09:41:01.374Z,19.15
2019-02-15T09:43:30.371Z,16.97
2019-02-15T09:46:19.500Z,15.20
2019-02-15T09:48:43.064Z,15.55
2019-02-15T09:51:12.284Z,15.88
2019-02-15T09:53:46.200Z,15.48
2019-02-15T09:56:20.925Z,15.43
2019-02-15T09:58:51.312Z,13.78
2019-02-15T10:01:26.166Z,15.93
2019-02-15T10:03:57.018Z,15.85
2019-02-15T10:06:28.765Z,19.27
2019-02-15T10:09:01.689Z,16.17
2019-02-15T10:11:30.415Z,16.35
2019-02-15T10:13:59.334Z,13.62
2019-02-15T10:16:32.833Z,14.23
2019-02-15T10:19:06.200Z,19.85
2019-02-15T10:21:36.482Z,19.52
2019-02-15T10:24:05.583Z,13.48
2019-02-15T10:26:34.122Z,13.15
2019-02-15T10:29:06.527Z,13.65
2019-02-15T10:31:38.207Z,16.45
2019-02-15T10:34:09.234Z,19.67
2019-02-15T10:36:40.204Z,11.68
2019-02-15T10:39:12.429Z,14.55
2019-02-15T10:41:41.610Z,16.97
2019-02-15T10:44:14.297Z,17.62
2019-02-15T10:46:44.672Z,19.37
2019-02-15T10:49:19.014Z,15.53
2019-02-15T10:51:47.565Z,13.62
2019-02-15T10:54:19.755Z,19.27
2019-02-15T10:56:48.294Z,12.98
2019-02-15T10:59:19.419Z,16.95
2019-02-15T11:01:48.124Z,16.15
2019-02-15T11:04:19.941Z,9.70
2019-02-15T11:06:55.675Z,7.37
2019-02-15T11:09:26.131Z,7.47
2019-02-15T11:11:59.330Z,12.25
2019-02-15T11:14:27.894Z,10.38
2019-02-15T11:16:57.012Z,6.25
2019-02-15T11:19:29.900Z,4.30
2019-02-15T11:21:59.962Z,9.03
2019-02-15T11:24:28.921Z,4.55
2019-02-15T11:26:58.019Z,6.17
2019-02-15T11:29:32.660Z,13.93
2019-02-15T11:32:04.808Z,6.75
2019-02-15T11:34:37.108Z,3.98
2019-02-15T11:37:08.915Z,2.90
2019-02-15T11:39:42.319Z,4.12
2019-02-15T11:42:13.390Z,3.08
2019-02-15T11:44:43.320Z,2.50
2019-02-15T11:47:11.865Z,4.15
2019-02-15T11:49:47.181Z,4.92
2019-02-15T11:52:15.732Z,5.10
2019-02-15T11:54:47.788Z,2.95
2019-02-15T11:57:21.249Z,4.25
2019-02-15T11:59:53.332Z,3.42
2019-02-15T12:02:27.171Z,5.97
2019-02-15T12:04:57.623Z,5.15
2019-02-15T12:07:26.476Z,4.37
2019-02-15T12:10:00.764Z,3.58
2019-02-15T12:12:32.853Z,3.62
2019-02-15T12:15:07.873Z,6.33
2019-02-15T12:17:39.767Z,6.42
2019-02-15T12:20:12.262Z,5.70
2019-02-15T12:22:46.195Z,6.60
2019-02-15T12:25:20.199Z,4.17
2019-02-15T12:27:52.122Z,4.05
2019-02-15T12:30:40.189Z,5.42
2019-02-15T12:33:10.580Z,5.12
2019-02-15T12:35:39.305Z,3.15
2019-02-15T12:38:12.948Z,6.72
2019-02-15T12:43:11.591Z,4.58
2019-02-15T12:45:49.674Z,4.20
2019-02-15T12:48:20.491Z,5.80
2019-02-15T12:50:52.484Z,4.58
2019-02-15T12:53:25.147Z,5.35
2019-02-15T12:55:57.840Z,3.17
2019-02-15T12:58:29.968Z,4.65
2019-02-15T13:01:02.090Z,9.70
2019-02-15T13:03:30.994Z,4.03
2019-02-15T13:06:00.289Z,4.90
2019-02-15T13:08:33.298Z,4.28
2019-02-15T13:11:03.449Z,3.83
2019-02-15T13:13:37.076Z,4.60
2019-02-15T13:16:11.721Z,3.15
2019-02-15T13:21:16.711Z,4.72
2019-02-15T13:23:47.712Z,3.20
2019-02-15T13:26:24.855Z,3.02
2019-02-15T13:28:57.008Z,3.20
2019-02-15T13:31:26.350Z,4.12
2019-02-15T13:33:57.261Z,3.35
2019-02-15T13:36:27.958Z,5.92
2019-02-15T13:39:00.417Z,6.28
2019-02-15T13:41:33.015Z,3.58
2019-02-15T13:44:04.789Z,3.92
2019-02-15T13:46:35.595Z,5.47
2019-02-15T13:49:06.421Z,6.53
2019-02-15T13:51:38.815Z,4.17
2019-02-15T13:54:14.012Z,2.83
2019-02-15T13:56:47.653Z,6.62
2019-02-15T13:59:19.585Z,4.10
2019-02-15T14:01:53.359Z,3.58
2019-02-15T14:06:58.849Z,5.92
2019-02-15T14:09:29.613Z,2.70
2019-02-15T14:11:58.826Z,4.03
2019-02-15T14:14:29.623Z,4.28
2019-02-15T14:16:58.777Z,3.33
2019-02-15T14:19:33.735Z,6.70
2019-02-15T14:22:04.220Z,3.58
2019-02-15T14:24:39.136Z,2.70
2019-02-15T14:27:08.284Z,2.52
2019-02-15T14:29:40.718Z,4.37
2019-02-15T14:32:14.831Z,2.55
2019-02-15T14:34:48.713Z,3.47
2019-02-15T14:37:19.446Z,3.42
2019-02-15T14:39:53.332Z,4.28
2019-02-15T14:42:28.687Z,2.47
2019-02-15T14:45:08.875Z,3.55
2019-02-15T14:47:40.005Z,3.12
2019-02-15T14:50:15.773Z,5.55
2019-02-15T14:52:49.060Z,2.60
2019-02-15T14:55:21.940Z,6.03
2019-02-15T14:57:54.240Z,5.00
2019-02-15T15:00:29.794Z,3.20
2019-02-15T15:03:04.420Z,5.75
2019-02-15T15:05:41.986Z,5.20
2019-02-15T15:08:15.235Z,7.83
2019-02-15T15:10:44.539Z,3.60
2019-02-15T15:13:41.654Z,4.15
2019-02-15T15:16:14.354Z,4.58
2019-02-15T15:18:45.022Z,3.27
2019-02-15T15:21:27.908Z,4.35
2019-02-15T15:23:58.863Z,2.25
2019-02-15T15:26:33.347Z,3.80
2019-02-15T15:29:05.609Z,2.80
2019-02-15T15:31:34.899Z,2.62
2019-02-15T15:34:04.586Z,3.35
2019-02-15T15:36:34.968Z,2.60
2019-02-15T15:39:07.057Z,8.38
2019-02-15T15:41:36.295Z,9.48
2019-02-15T15:44:07.091Z,4.20
2019-02-15T15:46:40.787Z,4.17
2019-02-15T15:51:43.090Z,6.87
2019-02-15T15:54:17.740Z,3.70
2019-02-15T15:56:50.789Z,2.50
2019-02-15T15:59:20.257Z,4.80
2019-02-15T16:01:50.835Z,9.73
2019-02-15T16:04:19.381Z,16.60
2019-02-15T16:06:52.717Z,72.27
2019-02-15T16:09:21.437Z,13.18
2019-02-15T16:11:50.659Z,7.67
2019-02-15T16:14:23.927Z,15.43
2019-02-15T16:16:57.847Z,7.53
2019-02-15T16:19:28.179Z,14.80
2019-02-15T16:21:58.734Z,5.30
2019-02-15T16:24:31.073Z,6.03
2019-02-15T16:26:59.648Z,3.50
2019-02-15T16:29:28.473Z,6.70
2019-02-15T16:32:00.038Z,19.73
2019-02-15T16:34:31.233Z,8.90
2019-02-15T16:37:03.012Z,6.85
2019-02-15T16:39:33.400Z,4.65
2019-02-15T16:42:04.546Z,16.67
2019-02-15T16:44:36.344Z,30.32
2019-02-15T16:47:05.431Z,58.52
2019-02-15T16:49:39.735Z,57.25
2019-02-15T16:52:12.044Z,62.25
2019-02-15T16:54:43.882Z,66.55
2019-02-15T16:57:16.177Z,69.87
2019-02-15T16:59:46.299Z,63.45
2019-02-15T17:02:18.139Z,46.37
2019-02-15T17:04:46.994Z,35.92
2019-02-15T17:07:15.911Z,27.52
2019-02-15T17:09:44.806Z,21.12
2019-02-15T17:12:18.925Z,26.95
2019-02-15T17:14:50.007Z,30.12
2019-02-15T17:17:24.344Z,23.62
2019-02-15T17:19:54.474Z,16.75
2019-02-15T17:22:25.421Z,15.80
2019-02-15T17:24:54.380Z,15.10
2019-02-15T17:27:26.230Z,18.67
2019-02-15T17:29:58.176Z,15.38
2019-02-15T17:32:28.989Z,15.40
2019-02-15T17:35:02.295Z,27.27
2019-02-15T17:37:34.493Z,25.43
2019-02-15T17:40:05.678Z,23.85
2019-02-15T17:42:36.310Z,18.30
2019-02-15T17:45:09.220Z,26.02
2019-02-15T17:47:39.730Z,24.10
2019-02-15T17:50:12.216Z,19.42
2019-02-15T17:52:42.754Z,18.98
2019-02-15T17:55:11.927Z,15.25
2019-02-15T17:57:42.785Z,15.08
2019-02-15T18:00:11.732Z,18.00
2019-02-15T18:02:43.786Z,25.25
2019-02-15T18:05:17.494Z,27.25
2019-02-15T18:10:19.384Z,20.10
2019-02-15T18:12:52.890Z,17.57
2019-02-15T18:15:23.358Z,41.75
2019-02-15T18:17:55.990Z,24.45
2019-02-15T18:20:32.131Z,25.90
2019-02-15T18:23:02.073Z,25.02
2019-02-15T18:25:37.339Z,23.57
2019-02-15T18:28:09.309Z,19.92
2019-02-15T18:30:47.322Z,17.52
2019-02-15T18:33:19.824Z,12.63
2019-02-15T18:35:52.030Z,14.78
2019-02-15T18:38:21.172Z,15.90
2019-02-15T18:40:51.589Z,17.30
2019-02-15T18:43:20.186Z,12.25
2019-02-15T18:45:48.918Z,18.52
2019-02-15T18:48:40.313Z,16.37
2019-02-15T18:51:09.116Z,19.60
2019-02-15T18:53:42.790Z,21.10
2019-02-15T18:58:44.211Z,21.37
2019-02-15T19:01:23.159Z,19.10
2019-02-15T19:03:55.093Z,10.50
2019-02-15T19:06:27.915Z,17.85
2019-02-15T19:08:57.040Z,21.73
2019-02-15T19:11:26.069Z,14.73
2019-02-15T19:14:02.716Z,13.10
2019-02-15T19:16:35.240Z,18.67
2019-02-15T19:19:09.173Z,15.32
2019-02-15T19:21:37.957Z,17.77
2019-02-15T19:24:06.558Z,21.17
2019-02-15T19:26:39.944Z,24.90
2019-02-15T19:29:10.895Z,29.02
2019-02-15T19:31:46.136Z,24.43
2019-02-15T19:34:15.375Z,22.98
2019-02-15T19:36:48.619Z,21.97
2019-02-15T19:39:22.751Z,25.97
2019-02-15T19:41:55.113Z,39.33
2019-02-15T19:44:26.794Z,36.03
2019-02-15T19:46:59.952Z,31.48
2019-02-15T19:49:38.235Z,33.18
2019-02-15T19:52:04.835Z,35.60
2019-02-15T19:54:35.772Z,38.13
2019-02-15T19:57:09.391Z,40.95
2019-02-15T20:02:15.542Z,32.67
2019-02-15T20:04:44.658Z,29.82
2019-02-15T20:07:14.614Z,28.47
2019-02-15T20:09:43.379Z,21.60
2019-02-15T20:12:15.868Z,23.92
2019-02-15T20:14:47.242Z,22.00
2019-02-15T20:17:18.223Z,16.42
2019-02-15T20:19:51.063Z,16.97
2019-02-15T20:22:21.634Z,18.92
2019-02-15T20:25:01.566Z,17.80
2019-02-15T20:27:38.255Z,10.55
2019-02-15T20:30:17.329Z,12.78
2019-02-15T20:32:51.434Z,12.80
2019-02-15T20:35:21.882Z,19.32
2019-02-15T20:37:50.810Z,15.65
2019-02-15T20:40:20.882Z,10.80
2019-02-15T20:42:52.687Z,10.75
2019-02-15T20:45:22.030Z,12.95
2019-02-15T20:47:52.530Z,9.08
2019-02-15T20:50:22.821Z,12.63
2019-02-15T20:52:58.151Z,9.73
2019-02-15T20:55:32.645Z,11.50
2019-02-15T20:58:04.572Z,13.25
2019-02-15T21:00:38.282Z,13.00
2019-02-15T21:03:14.364Z,9.75
2019-02-15T21:05:45.602Z,11.28
2019-02-15T21:08:17.661Z,9.53
2019-02-15T21:10:55.088Z,13.90
2019-02-15T21:13:28.743Z,12.47
2019-02-15T21:15:58.871Z,9.50
2019-02-15T21:18:28.936Z,10.40
2019-02-15T21:20:59.696Z,11.00
2019-02-15T21:23:48.456Z,13.32
2019-02-15T21:26:18.808Z,13.45
2019-02-15T21:28:50.477Z,12.05
2019-02-15T21:31:21.591Z,14.20
2019-02-15T21:33:53.896Z,11.43
2019-02-15T21:36:26.468Z,15.43
2019-02-15T21:38:55.365Z,10.53
2019-02-15T21:41:33.980Z,11.88
2019-02-15T21:44:06.046Z,14.58
2019-02-15T21:46:34.991Z,12.15
2019-02-15T21:49:05.697Z,11.40
2019-02-15T21:51:35.109Z,15.05
2019-02-15T21:54:07.637Z,14.13
2019-02-15T21:56:43.187Z,14.28
2019-02-15T21:59:15.591Z,14.07
2019-02-15T22:01:52.601Z,19.70
2019-02-15T22:04:23.874Z,21.55
2019-02-15T22:06:56.271Z,16.65
2019-02-15T22:09:31.328Z,17.67
2019-02-15T22:12:03.527Z,16.32
2019-02-15T22:14:37.688Z,16.87
2019-02-15T22:17:09.909Z,14.13
2019-02-15T22:19:40.141Z,12.47
2019-02-15T22:22:11.953Z,16.80
2019-02-15T22:24:40.907Z,16.95
2019-02-15T22:27:15.058Z,13.08
2019-02-15T22:29:45.705Z,12.80
2019-02-15T22:32:14.758Z,12.33
2019-02-15T22:34:46.515Z,16.60
2019-02-15T22:37:22.063Z,16.07
2019-02-15T22:39:55.265Z,15.50
2019-02-15T22:42:24.482Z,20.12
2019-02-15T22:44:53.951Z,17.40
2019-02-15T22:47:24.379Z,17.20
2019-02-15T22:49:55.188Z,17.10
2019-02-15T22:52:26.212Z,14.35
2019-02-15T22:54:58.257Z,15.23
2019-02-15T22:57:28.962Z,15.70
2019-02-15T23:00:12.640Z,14.45
2019-02-15T23:02:36.186Z,17.00
2019-02-15T23:05:04.782Z,16.20
2019-02-15T23:07:38.588Z,17.85
2019-02-15T23:10:11.544Z,18.20
2019-02-15T23:12:40.659Z,18.73
2019-02-15T23:15:09.221Z,18.65
2019-02-15T23:17:38.156Z,13.32
2019-02-15T23:20:11.749Z,20.10
2019-02-15T23:25:16.099Z,10.70
2019-02-15T23:27:46.740Z,11.03
2019-02-15T23:30:15.681Z,11.85
2019-02-15T23:32:44.796Z,13.20
2019-02-15T23:35:13.339Z,14.87
2019-02-15T23:37:46.369Z,13.80
2019-02-15T23:40:15.254Z,14.87
2019-02-15T23:42:44.208Z,12.03
2019-02-15T23:45:17.705Z,15.93
2019-02-15T23:50:16.347Z,12.90
2019-02-15T23:52:45.597Z,12.73
2019-02-15T23:55:18.344Z,12.50
2019-02-15T23:57:50.200Z,14.35
